sensor_id;sensor_type;location;lat;lon;timestamp;P1;durP1;ratioP1;P2;durP2;ratioP2
8213;SDS011;4148;47.974;7.824;2024-01-10T00:02:19;38.87;;;20.40;;
8213;SDS011;4148;47.974;7.824;2024-01-10T00:04:47;40.57;;;19.90;;
8213;SDS011;4148;47.974;7.824;2024-01-10T00:07:15;35.97;;;21.30;;
8213;SDS011;4148;47.974;7.824;2024-01-10T00:09:43;39.43;;;20.93;;
8213;SDS011;4148;47.974;7.824;2024-01-10T00:12:12;40.13;;;20.50;;
8213;SDS011;4148;47.974;7.824;2024-01-10T00:14:40;42.17;;;19.63;;
8213;SDS011;4148;47.974;7.824;2024-01-10T00:17:09;38.80;;;21.10;;
8213;SDS011;4148;47.974;7.824;2024-01-10T00:19:37;35.90;;;20.47;;
8213;SDS011;4148;47.974;7.824;2024-01-10T00:22:05;38.77;;;20.70;;
8213;SDS011;4148;47.974;7.824;2024-01-10T00:24:33;42.20;;;20.67;;
8213;SDS011;4148;47.974;7.824;2024-01-10T00:27:00;39.43;;;20.60;;
8213;SDS011;4148;47.974;7.824;2024-01-10T00:29:28;38.03;;;20.17;;
8213;SDS011;4148;47.974;7.824;2024-01-10T00:31:56;39.57;;;20.50;;
8213;SDS011;4148;47.974;7.824;2024-01-10T00:34:27;40.50;;;19.83;;
8213;SDS011;4148;47.974;7.824;2024-01-10T00:36:55;37.80;;;19.00;;
8213;SDS011;4148;47.974;7.824;2024-01-10T00:39:23;37.63;;;19.83;;
8213;SDS011;4148;47.974;7.824;2024-01-10T00:41:51;37.63;;;19.43;;
8213;SDS011;4148;47.974;7.824;2024-01-10T00:44:19;36.70;;;21.03;;
8213;SDS011;4148;47.974;7.824;2024-01-10T00:46:47;38.33;;;20.80;;
8213;SDS011;4148;47.974;7.824;2024-01-10T00:49:15;39.30;;;20.10;;
8213;SDS011;4148;47.974;7.824;2024-01-10T00:51:44;35.43;;;18.60;;
8213;SDS011;4148;47.974;7.824;2024-01-10T00:54:12;31.93;;;19.43;;
8213;SDS011;4148;47.974;7.824;2024-01-10T00:56:40;36.97;;;18.87;;
8213;SDS011;4148;47.974;7.824;2024-01-10T00:59:08;39.03;;;20.93;;
8213;SDS011;4148;47.974;7.824;2024-01-10T01:01:36;35.67;;;19.27;;
8213;SDS011;4148;47.974;7.824;2024-01-10T01:04:04;37.60;;;20.63;;
8213;SDS011;4148;47.974;7.824;2024-01-10T01:06:31;39.97;;;21.37;;
8213;SDS011;4148;47.974;7.824;2024-01-10T01:09:01;40.60;;;21.87;;
8213;SDS011;4148;47.974;7.824;2024-01-10T01:11:28;35.10;;;18.80;;
8213;SDS011;4148;47.974;7.824;2024-01-10T01:13:56;41.23;;;20.60;;
8213;SDS011;4148;47.974;7.824;2024-01-10T01:16:24;37.23;;;19.80;;
8213;SDS011;4148;47.974;7.824;2024-01-10T01:18:52;37.87;;;21.10;;
8213;SDS011;4148;47.974;7.824;2024-01-10T01:21:20;38.73;;;17.83;;
8213;SDS011;4148;47.974;7.824;2024-01-10T01:23:48;37.10;;;20.17;;
8213;SDS011;4148;47.974;7.824;2024-01-10T01:26:17;37.27;;;20.97;;
8213;SDS011;4148;47.974;7.824;2024-01-10T01:28:45;35.63;;;19.50;;
8213;SDS011;4148;47.974;7.824;2024-01-10T01:31:13;39.93;;;20.17;;
8213;SDS011;4148;47.974;7.824;2024-01-10T01:33:41;40.63;;;20.57;;
8213;SDS011;4148;47.974;7.824;2024-01-10T01:36:09;40.47;;;20.47;;
8213;SDS011;4148;47.974;7.824;2024-01-10T01:38:37;39.63;;;20.17;;
8213;SDS011;4148;47.974;7.824;2024-01-10T01:41:04;38.70;;;19.20;;
8213;SDS011;4148;47.974;7.824;2024-01-10T01:43:34;47.37;;;21.77;;
8213;SDS011;4148;47.974;7.824;2024-01-10T01:46:02;40.10;;;19.97;;
8213;SDS011;4148;47.974;7.824;2024-01-10T01:48:30;36.37;;;20.43;;
8213;SDS011;4148;47.974;7.824;2024-01-10T01:51:00;41.53;;;20.43;;
8213;SDS011;4148;47.974;7.824;2024-01-10T01:53:30;44.83;;;21.53;;
8213;SDS011;4148;47.974;7.824;2024-01-10T01:55:58;43.07;;;21.40;;
8213;SDS011;4148;47.974;7.824;2024-01-10T01:58:30;34.40;;;19.13;;
8213;SDS011;4148;47.974;7.824;2024-01-10T02:01:00;40.10;;;19.90;;
8213;SDS011;4148;47.974;7.824;2024-01-10T02:03:30;42.03;;;21.50;;
8213;SDS011;4148;47.974;7.824;2024-01-10T02:05:58;40.57;;;21.47;;
8213;SDS011;4148;47.974;7.824;2024-01-10T02:08:29;45.40;;;22.57;;
8213;SDS011;4148;47.974;7.824;2024-01-10T02:10:58;39.40;;;20.10;;
8213;SDS011;4148;47.974;7.824;2024-01-10T02:13:26;39.77;;;20.50;;
8213;SDS011;4148;47.974;7.824;2024-01-10T02:15:55;46.17;;;22.03;;
8213;SDS011;4148;47.974;7.824;2024-01-10T02:18:25;44.30;;;21.50;;
8213;SDS011;4148;47.974;7.824;2024-01-10T02:20:52;44.80;;;21.07;;
8213;SDS011;4148;47.974;7.824;2024-01-10T02:23:20;38.10;;;20.33;;
8213;SDS011;4148;47.974;7.824;2024-01-10T02:25:50;41.20;;;21.90;;
8213;SDS011;4148;47.974;7.824;2024-01-10T02:28:18;39.87;;;21.47;;
8213;SDS011;4148;47.974;7.824;2024-01-10T02:30:45;41.13;;;21.73;;
8213;SDS011;4148;47.974;7.824;2024-01-10T02:33:14;41.27;;;21.97;;
8213;SDS011;4148;47.974;7.824;2024-01-10T02:35:41;40.80;;;21.63;;
8213;SDS011;4148;47.974;7.824;2024-01-10T02:38:09;39.50;;;21.13;;
8213;SDS011;4148;47.974;7.824;2024-01-10T02:40:37;42.90;;;21.43;;
8213;SDS011;4148;47.974;7.824;2024-01-10T02:43:07;38.33;;;20.90;;
8213;SDS011;4148;47.974;7.824;2024-01-10T02:45:36;40.80;;;20.80;;
8213;SDS011;4148;47.974;7.824;2024-01-10T02:48:04;39.03;;;20.33;;
8213;SDS011;4148;47.974;7.824;2024-01-10T02:50:32;43.47;;;21.30;;
8213;SDS011;4148;47.974;7.824;2024-01-10T02:53:00;40.53;;;22.40;;
8213;SDS011;4148;47.974;7.824;2024-01-10T02:55:28;42.80;;;22.90;;
8213;SDS011;4148;47.974;7.824;2024-01-10T02:57:56;37.90;;;19.67;;
8213;SDS011;4148;47.974;7.824;2024-01-10T03:00:25;44.00;;;20.53;;
8213;SDS011;4148;47.974;7.824;2024-01-10T03:02:53;41.37;;;20.73;;
8213;SDS011;4148;47.974;7.824;2024-01-10T03:05:21;42.43;;;21.83;;
8213;SDS011;4148;47.974;7.824;2024-01-10T03:07:49;42.40;;;22.50;;
8213;SDS011;4148;47.974;7.824;2024-01-10T03:10:17;41.27;;;20.67;;
8213;SDS011;4148;47.974;7.824;2024-01-10T03:12:45;42.50;;;22.23;;
8213;SDS011;4148;47.974;7.824;2024-01-10T03:15:13;40.60;;;22.17;;
8213;SDS011;4148;47.974;7.824;2024-01-10T03:17:42;40.83;;;21.80;;
8213;SDS011;4148;47.974;7.824;2024-01-10T03:20:10;39.60;;;20.97;;
8213;SDS011;4148;47.974;7.824;2024-01-10T03:22:38;46.53;;;22.40;;
8213;SDS011;4148;47.974;7.824;2024-01-10T03:25:06;42.07;;;20.80;;
8213;SDS011;4148;47.974;7.824;2024-01-10T03:27:34;40.03;;;22.33;;
8213;SDS011;4148;47.974;7.824;2024-01-10T03:30:02;39.07;;;20.90;;
8213;SDS011;4148;47.974;7.824;2024-01-10T03:32:32;39.40;;;21.43;;
8213;SDS011;4148;47.974;7.824;2024-01-10T03:35:01;39.50;;;21.60;;
8213;SDS011;4148;47.974;7.824;2024-01-10T03:37:30;45.53;;;22.07;;
8213;SDS011;4148;47.974;7.824;2024-01-10T03:39:58;38.23;;;20.40;;
8213;SDS011;4148;47.974;7.824;2024-01-10T03:42:26;42.13;;;21.53;;
8213;SDS011;4148;47.974;7.824;2024-01-10T03:44:54;44.27;;;22.67;;
8213;SDS011;4148;47.974;7.824;2024-01-10T03:47:22;44.17;;;21.20;;
8213;SDS011;4148;47.974;7.824;2024-01-10T03:49:50;36.87;;;20.17;;
8213;SDS011;4148;47.974;7.824;2024-01-10T03:52:19;41.87;;;21.90;;
8213;SDS011;4148;47.974;7.824;2024-01-10T03:54:47;43.80;;;22.33;;
8213;SDS011;4148;47.974;7.824;2024-01-10T03:57:15;41.77;;;21.63;;
8213;SDS011;4148;47.974;7.824;2024-01-10T03:59:43;45.97;;;22.37;;
8213;SDS011;4148;47.974;7.824;2024-01-10T04:02:10;44.87;;;22.30;;
8213;SDS011;4148;47.974;7.824;2024-01-10T04:04:38;43.87;;;22.23;;
8213;SDS011;4148;47.974;7.824;2024-01-10T04:07:06;41.23;;;22.53;;
8213;SDS011;4148;47.974;7.824;2024-01-10T04:09:36;46.30;;;22.37;;
8213;SDS011;4148;47.974;7.824;2024-01-10T04:12:04;44.83;;;21.40;;
8213;SDS011;4148;47.974;7.824;2024-01-10T04:14:32;50.13;;;24.13;;
8213;SDS011;4148;47.974;7.824;2024-01-10T04:17:00;41.83;;;22.83;;
8213;SDS011;4148;47.974;7.824;2024-01-10T04:19:29;44.60;;;22.93;;
8213;SDS011;4148;47.974;7.824;2024-01-10T04:21:57;37.60;;;21.30;;
8213;SDS011;4148;47.974;7.824;2024-01-10T04:24:25;44.33;;;23.30;;
8213;SDS011;4148;47.974;7.824;2024-01-10T04:26:54;40.80;;;21.37;;
8213;SDS011;4148;47.974;7.824;2024-01-10T04:29:22;42.67;;;22.90;;
8213;SDS011;4148;47.974;7.824;2024-01-10T04:31:50;42.10;;;22.33;;
8213;SDS011;4148;47.974;7.824;2024-01-10T04:34:18;46.60;;;22.87;;
8213;SDS011;4148;47.974;7.824;2024-01-10T04:36:46;43.97;;;23.60;;
8213;SDS011;4148;47.974;7.824;2024-01-10T04:39:14;39.63;;;21.90;;
8213;SDS011;4148;47.974;7.824;2024-01-10T04:41:42;43.83;;;20.87;;
8213;SDS011;4148;47.974;7.824;2024-01-10T04:44:11;46.50;;;22.73;;
8213;SDS011;4148;47.974;7.824;2024-01-10T04:46:39;45.27;;;21.30;;
8213;SDS011;4148;47.974;7.824;2024-01-10T04:49:07;49.87;;;22.80;;
8213;SDS011;4148;47.974;7.824;2024-01-10T04:51:36;43.30;;;22.83;;
8213;SDS011;4148;47.974;7.824;2024-01-10T04:54:04;41.70;;;22.43;;
8213;SDS011;4148;47.974;7.824;2024-01-10T04:56:32;42.40;;;22.23;;
8213;SDS011;4148;47.974;7.824;2024-01-10T04:59:00;41.27;;;21.93;;
8213;SDS011;4148;47.974;7.824;2024-01-10T05:01:29;47.23;;;24.00;;
8213;SDS011;4148;47.974;7.824;2024-01-10T05:03:57;45.77;;;22.70;;
8213;SDS011;4148;47.974;7.824;2024-01-10T05:06:25;39.83;;;21.50;;
8213;SDS011;4148;47.974;7.824;2024-01-10T05:08:53;40.80;;;20.67;;
8213;SDS011;4148;47.974;7.824;2024-01-10T05:11:24;44.97;;;22.70;;
8213;SDS011;4148;47.974;7.824;2024-01-10T05:13:53;44.67;;;22.43;;
8213;SDS011;4148;47.974;7.824;2024-01-10T05:16:20;44.73;;;21.57;;
8213;SDS011;4148;47.974;7.824;2024-01-10T05:18:50;40.23;;;22.40;;
8213;SDS011;4148;47.974;7.824;2024-01-10T05:21:18;45.13;;;24.00;;
8213;SDS011;4148;47.974;7.824;2024-01-10T05:23:46;38.13;;;20.00;;
8213;SDS011;4148;47.974;7.824;2024-01-10T05:26:15;45.37;;;21.63;;
8213;SDS011;4148;47.974;7.824;2024-01-10T05:28:43;44.00;;;21.80;;
8213;SDS011;4148;47.974;7.824;2024-01-10T05:31:11;43.70;;;22.80;;
8213;SDS011;4148;47.974;7.824;2024-01-10T05:33:39;47.57;;;22.70;;
8213;SDS011;4148;47.974;7.824;2024-01-10T05:36:10;46.43;;;23.13;;
8213;SDS011;4148;47.974;7.824;2024-01-10T05:38:39;51.00;;;24.43;;
8213;SDS011;4148;47.974;7.824;2024-01-10T05:41:07;49.10;;;24.13;;
8213;SDS011;4148;47.974;7.824;2024-01-10T05:43:35;46.80;;;23.40;;
8213;SDS011;4148;47.974;7.824;2024-01-10T05:46:03;43.73;;;22.13;;
8213;SDS011;4148;47.974;7.824;2024-01-10T05:48:31;43.93;;;21.37;;
8213;SDS011;4148;47.974;7.824;2024-01-10T05:51:00;40.33;;;20.63;;
8213;SDS011;4148;47.974;7.824;2024-01-10T05:53:29;45.87;;;22.80;;
8213;SDS011;4148;47.974;7.824;2024-01-10T05:55:59;43.50;;;22.17;;
8213;SDS011;4148;47.974;7.824;2024-01-10T05:58:27;45.23;;;23.70;;
8213;SDS011;4148;47.974;7.824;2024-01-10T06:00:55;45.27;;;23.37;;
8213;SDS011;4148;47.974;7.824;2024-01-10T06:03:23;47.10;;;23.13;;
8213;SDS011;4148;47.974;7.824;2024-01-10T06:05:51;45.97;;;23.20;;
8213;SDS011;4148;47.974;7.824;2024-01-10T06:08:19;41.40;;;21.53;;
8213;SDS011;4148;47.974;7.824;2024-01-10T06:10:53;59.10;;;25.17;;
8213;SDS011;4148;47.974;7.824;2024-01-10T06:13:21;43.30;;;22.87;;
8213;SDS011;4148;47.974;7.824;2024-01-10T06:15:49;49.13;;;23.13;;
8213;SDS011;4148;47.974;7.824;2024-01-10T06:18:17;44.50;;;23.37;;
8213;SDS011;4148;47.974;7.824;2024-01-10T06:20:45;47.93;;;24.37;;
8213;SDS011;4148;47.974;7.824;2024-01-10T06:23:14;52.80;;;25.17;;
8213;SDS011;4148;47.974;7.824;2024-01-10T06:25:41;44.40;;;22.47;;
8213;SDS011;4148;47.974;7.824;2024-01-10T06:28:11;48.20;;;23.20;;
8213;SDS011;4148;47.974;7.824;2024-01-10T06:30:39;45.23;;;23.47;;
8213;SDS011;4148;47.974;7.824;2024-01-10T06:33:07;47.30;;;23.83;;
8213;SDS011;4148;47.974;7.824;2024-01-10T06:35:35;46.13;;;23.57;;
8213;SDS011;4148;47.974;7.824;2024-01-10T06:38:03;47.60;;;22.47;;
8213;SDS011;4148;47.974;7.824;2024-01-10T06:40:31;49.47;;;23.20;;
8213;SDS011;4148;47.974;7.824;2024-01-10T06:42:59;48.53;;;23.90;;
8213;SDS011;4148;47.974;7.824;2024-01-10T06:45:28;46.60;;;22.97;;
8213;SDS011;4148;47.974;7.824;2024-01-10T06:47:56;48.00;;;23.67;;
8213;SDS011;4148;47.974;7.824;2024-01-10T06:50:24;44.13;;;23.27;;
8213;SDS011;4148;47.974;7.824;2024-01-10T06:52:52;43.00;;;22.77;;
8213;SDS011;4148;47.974;7.824;2024-01-10T06:55:20;41.50;;;21.37;;
8213;SDS011;4148;47.974;7.824;2024-01-10T06:57:50;44.70;;;22.17;;
8213;SDS011;4148;47.974;7.824;2024-01-10T07:00:19;44.17;;;23.70;;
8213;SDS011;4148;47.974;7.824;2024-01-10T07:02:49;44.00;;;22.57;;
8213;SDS011;4148;47.974;7.824;2024-01-10T07:05:18;44.30;;;20.47;;
8213;SDS011;4148;47.974;7.824;2024-01-10T07:07:46;42.67;;;23.43;;
8213;SDS011;4148;47.974;7.824;2024-01-10T07:10:16;46.87;;;23.23;;
8213;SDS011;4148;47.974;7.824;2024-01-10T07:12:44;48.07;;;22.67;;
8213;SDS011;4148;47.974;7.824;2024-01-10T07:15:12;43.27;;;22.23;;
8213;SDS011;4148;47.974;7.824;2024-01-10T07:17:39;40.53;;;22.97;;
8213;SDS011;4148;47.974;7.824;2024-01-10T07:20:11;49.77;;;23.57;;
8213;SDS011;4148;47.974;7.824;2024-01-10T07:22:39;46.27;;;23.37;;
8213;SDS011;4148;47.974;7.824;2024-01-10T07:25:07;44.97;;;22.77;;
8213;SDS011;4148;47.974;7.824;2024-01-10T07:27:35;49.90;;;23.90;;
8213;SDS011;4148;47.974;7.824;2024-01-10T07:30:05;51.70;;;24.10;;
8213;SDS011;4148;47.974;7.824;2024-01-10T07:32:40;49.93;;;24.23;;
8213;SDS011;4148;47.974;7.824;2024-01-10T07:35:08;44.73;;;22.40;;
8213;SDS011;4148;47.974;7.824;2024-01-10T07:37:39;47.83;;;23.40;;
8213;SDS011;4148;47.974;7.824;2024-01-10T07:40:08;46.20;;;23.20;;
8213;SDS011;4148;47.974;7.824;2024-01-10T07:42:37;44.77;;;23.00;;
8213;SDS011;4148;47.974;7.824;2024-01-10T07:45:06;42.13;;;22.00;;
8213;SDS011;4148;47.974;7.824;2024-01-10T07:47:35;47.40;;;23.20;;
8213;SDS011;4148;47.974;7.824;2024-01-10T07:50:04;52.83;;;25.87;;
8213;SDS011;4148;47.974;7.824;2024-01-10T07:52:34;47.90;;;23.30;;
8213;SDS011;4148;47.974;7.824;2024-01-10T07:55:02;49.67;;;24.87;;
8213;SDS011;4148;47.974;7.824;2024-01-10T07:57:31;44.70;;;22.77;;
8213;SDS011;4148;47.974;7.824;2024-01-10T08:00:00;46.87;;;23.93;;
8213;SDS011;4148;47.974;7.824;2024-01-10T08:02:30;46.73;;;23.53;;
8213;SDS011;4148;47.974;7.824;2024-01-10T08:05:00;45.90;;;23.63;;
8213;SDS011;4148;47.974;7.824;2024-01-10T08:07:31;47.80;;;23.37;;
8213;SDS011;4148;47.974;7.824;2024-01-10T08:10:01;50.50;;;24.33;;
8213;SDS011;4148;47.974;7.824;2024-01-10T08:12:29;55.17;;;24.60;;
8213;SDS011;4148;47.974;7.824;2024-01-10T08:14:57;52.40;;;25.60;;
8213;SDS011;4148;47.974;7.824;2024-01-10T08:17:25;48.27;;;22.97;;
8213;SDS011;4148;47.974;7.824;2024-01-10T08:19:53;48.00;;;26.30;;
8213;SDS011;4148;47.974;7.824;2024-01-10T08:22:21;50.53;;;23.80;;
8213;SDS011;4148;47.974;7.824;2024-01-10T08:24:52;60.53;;;25.90;;
8213;SDS011;4148;47.974;7.824;2024-01-10T08:27:23;50.07;;;24.87;;
8213;SDS011;4148;47.974;7.824;2024-01-10T08:29:51;53.47;;;24.00;;
8213;SDS011;4148;47.974;7.824;2024-01-10T08:32:18;53.37;;;24.67;;
8213;SDS011;4148;47.974;7.824;2024-01-10T08:34:48;52.27;;;24.47;;
8213;SDS011;4148;47.974;7.824;2024-01-10T08:37:17;48.47;;;23.57;;
8213;SDS011;4148;47.974;7.824;2024-01-10T08:39:44;55.23;;;25.50;;
8213;SDS011;4148;47.974;7.824;2024-01-10T08:42:12;44.50;;;22.40;;
8213;SDS011;4148;47.974;7.824;2024-01-10T08:44:41;50.93;;;25.70;;
8213;SDS011;4148;47.974;7.824;2024-01-10T08:47:10;48.80;;;24.93;;
8213;SDS011;4148;47.974;7.824;2024-01-10T08:49:37;53.57;;;24.93;;
8213;SDS011;4148;47.974;7.824;2024-01-10T08:52:06;51.23;;;25.50;;
8213;SDS011;4148;47.974;7.824;2024-01-10T08:54:34;51.77;;;24.83;;
8213;SDS011;4148;47.974;7.824;2024-01-10T08:57:03;49.00;;;25.60;;
8213;SDS011;4148;47.974;7.824;2024-01-10T08:59:31;47.20;;;24.10;;
8213;SDS011;4148;47.974;7.824;2024-01-10T09:02:00;42.13;;;23.37;;
8213;SDS011;4148;47.974;7.824;2024-01-10T09:04:29;52.80;;;25.90;;
8213;SDS011;4148;47.974;7.824;2024-01-10T09:06:57;47.20;;;24.10;;
8213;SDS011;4148;47.974;7.824;2024-01-10T09:09:25;53.40;;;25.27;;
8213;SDS011;4148;47.974;7.824;2024-01-10T09:11:54;48.73;;;24.20;;
8213;SDS011;4148;47.974;7.824;2024-01-10T09:14:22;50.47;;;23.97;;
8213;SDS011;4148;47.974;7.824;2024-01-10T09:16:50;45.20;;;23.80;;
8213;SDS011;4148;47.974;7.824;2024-01-10T09:19:20;44.53;;;24.30;;
8213;SDS011;4148;47.974;7.824;2024-01-10T09:21:48;41.10;;;23.83;;
8213;SDS011;4148;47.974;7.824;2024-01-10T09:24:16;49.13;;;25.43;;
8213;SDS011;4148;47.974;7.824;2024-01-10T09:26:54;47.67;;;23.37;;
8213;SDS011;4148;47.974;7.824;2024-01-10T09:29:23;51.30;;;24.83;;
8213;SDS011;4148;47.974;7.824;2024-01-10T09:31:52;50.70;;;25.67;;
8213;SDS011;4148;47.974;7.824;2024-01-10T09:34:22;42.87;;;24.67;;
8213;SDS011;4148;47.974;7.824;2024-01-10T09:36:50;44.50;;;23.23;;
8213;SDS011;4148;47.974;7.824;2024-01-10T09:39:19;49.90;;;24.50;;
8213;SDS011;4148;47.974;7.824;2024-01-10T09:41:47;50.37;;;25.23;;
8213;SDS011;4148;47.974;7.824;2024-01-10T09:44:17;52.40;;;25.03;;
8213;SDS011;4148;47.974;7.824;2024-01-10T09:46:48;50.40;;;24.27;;
8213;SDS011;4148;47.974;7.824;2024-01-10T09:49:18;52.27;;;25.47;;
8213;SDS011;4148;47.974;7.824;2024-01-10T09:51:49;50.20;;;25.43;;
8213;SDS011;4148;47.974;7.824;2024-01-10T09:54:20;53.67;;;25.20;;
8213;SDS011;4148;47.974;7.824;2024-01-10T09:56:50;50.87;;;24.90;;
8213;SDS011;4148;47.974;7.824;2024-01-10T09:59:19;50.70;;;24.37;;
8213;SDS011;4148;47.974;7.824;2024-01-10T10:01:47;48.60;;;25.80;;
8213;SDS011;4148;47.974;7.824;2024-01-10T10:04:15;45.50;;;24.63;;
8213;SDS011;4148;47.974;7.824;2024-01-10T10:06:47;53.73;;;24.57;;
8213;SDS011;4148;47.974;7.824;2024-01-10T10:09:16;59.43;;;23.70;;
8213;SDS011;4148;47.974;7.824;2024-01-10T10:11:52;46.30;;;24.33;;
8213;SDS011;4148;47.974;7.824;2024-01-10T10:14:20;51.10;;;24.70;;
8213;SDS011;4148;47.974;7.824;2024-01-10T10:16:49;49.67;;;25.53;;
8213;SDS011;4148;47.974;7.824;2024-01-10T10:19:22;49.20;;;24.00;;
8213;SDS011;4148;47.974;7.824;2024-01-10T10:22:07;49.33;;;25.80;;
8213;SDS011;4148;47.974;7.824;2024-01-10T10:24:37;55.30;;;26.00;;
8213;SDS011;4148;47.974;7.824;2024-01-10T10:27:10;52.53;;;25.43;;
8213;SDS011;4148;47.974;7.824;2024-01-10T10:29:39;52.20;;;24.90;;
8213;SDS011;4148;47.974;7.824;2024-01-10T10:32:07;59.60;;;26.57;;
8213;SDS011;4148;47.974;7.824;2024-01-10T10:34:35;47.80;;;26.37;;
8213;SDS011;4148;47.974;7.824;2024-01-10T10:37:04;49.87;;;25.90;;
8213;SDS011;4148;47.974;7.824;2024-01-10T10:39:32;52.60;;;26.13;;
8213;SDS011;4148;47.974;7.824;2024-01-10T10:42:01;50.47;;;25.40;;
8213;SDS011;4148;47.974;7.824;2024-01-10T10:44:30;47.50;;;25.23;;
8213;SDS011;4148;47.974;7.824;2024-01-10T10:47:02;44.03;;;24.33;;
8213;SDS011;4148;47.974;7.824;2024-01-10T10:49:40;43.17;;;23.43;;
8213;SDS011;4148;47.974;7.824;2024-01-10T10:52:14;51.83;;;25.67;;
8213;SDS011;4148;47.974;7.824;2024-01-10T10:54:43;44.60;;;23.50;;
8213;SDS011;4148;47.974;7.824;2024-01-10T10:57:15;50.63;;;25.83;;
8213;SDS011;4148;47.974;7.824;2024-01-10T10:59:45;52.67;;;28.53;;
8213;SDS011;4148;47.974;7.824;2024-01-10T11:02:14;49.27;;;26.27;;
8213;SDS011;4148;47.974;7.824;2024-01-10T11:04:53;49.80;;;26.47;;
8213;SDS011;4148;47.974;7.824;2024-01-10T11:07:22;54.50;;;27.70;;
8213;SDS011;4148;47.974;7.824;2024-01-10T11:09:50;40.90;;;23.03;;
8213;SDS011;4148;47.974;7.824;2024-01-10T11:12:25;47.63;;;25.90;;
8213;SDS011;4148;47.974;7.824;2024-01-10T11:15:04;52.10;;;25.40;;
8213;SDS011;4148;47.974;7.824;2024-01-10T11:17:44;49.17;;;25.30;;
8213;SDS011;4148;47.974;7.824;2024-01-10T11:20:32;55.50;;;24.97;;
8213;SDS011;4148;47.974;7.824;2024-01-10T11:23:20;52.20;;;25.93;;
8213;SDS011;4148;47.974;7.824;2024-01-10T11:26:01;53.47;;;26.17;;
8213;SDS011;4148;47.974;7.824;2024-01-10T11:28:31;44.07;;;23.73;;
8213;SDS011;4148;47.974;7.824;2024-01-10T11:30:59;42.00;;;23.70;;
8213;SDS011;4148;47.974;7.824;2024-01-10T11:33:30;43.77;;;25.00;;
8213;SDS011;4148;47.974;7.824;2024-01-10T11:36:06;42.93;;;24.77;;
8213;SDS011;4148;47.974;7.824;2024-01-10T11:38:39;43.20;;;24.47;;
8213;SDS011;4148;47.974;7.824;2024-01-10T11:41:11;47.93;;;25.20;;
8213;SDS011;4148;47.974;7.824;2024-01-10T11:43:42;49.87;;;25.10;;
8213;SDS011;4148;47.974;7.824;2024-01-10T11:46:10;43.13;;;23.97;;
8213;SDS011;4148;47.974;7.824;2024-01-10T11:48:39;47.07;;;24.53;;
8213;SDS011;4148;47.974;7.824;2024-01-10T11:51:08;36.07;;;21.83;;
8213;SDS011;4148;47.974;7.824;2024-01-10T11:53:43;41.37;;;23.83;;
8213;SDS011;4148;47.974;7.824;2024-01-10T11:56:13;39.40;;;23.30;;
8213;SDS011;4148;47.974;7.824;2024-01-10T11:58:56;43.40;;;22.67;;
8213;SDS011;4148;47.974;7.824;2024-01-10T12:01:30;42.17;;;22.90;;
8213;SDS011;4148;47.974;7.824;2024-01-10T12:03:59;37.20;;;22.83;;
8213;SDS011;4148;47.974;7.824;2024-01-10T12:06:43;40.13;;;22.40;;
8213;SDS011;4148;47.974;7.824;2024-01-10T12:09:13;38.40;;;21.93;;
8213;SDS011;4148;47.974;7.824;2024-01-10T12:11:41;41.77;;;23.57;;
8213;SDS011;4148;47.974;7.824;2024-01-10T12:14:10;38.23;;;22.67;;
8213;SDS011;4148;47.974;7.824;2024-01-10T12:16:39;36.63;;;21.23;;
8213;SDS011;4148;47.974;7.824;2024-01-10T12:19:06;38.53;;;21.73;;
8213;SDS011;4148;47.974;7.824;2024-01-10T12:21:34;35.10;;;21.53;;
8213;SDS011;4148;47.974;7.824;2024-01-10T12:24:03;40.27;;;23.17;;
8213;SDS011;4148;47.974;7.824;2024-01-10T12:26:32;32.13;;;22.13;;
8213;SDS011;4148;47.974;7.824;2024-01-10T12:29:00;32.23;;;20.90;;
8213;SDS011;4148;47.974;7.824;2024-01-10T12:31:30;38.23;;;21.73;;
8213;SDS011;4148;47.974;7.824;2024-01-10T12:33:58;33.70;;;21.00;;
8213;SDS011;4148;47.974;7.824;2024-01-10T12:36:28;34.77;;;22.17;;
8213;SDS011;4148;47.974;7.824;2024-01-10T12:38:55;36.10;;;22.50;;
8213;SDS011;4148;47.974;7.824;2024-01-10T12:41:23;35.60;;;20.57;;
8213;SDS011;4148;47.974;7.824;2024-01-10T12:43:52;35.83;;;20.30;;
8213;SDS011;4148;47.974;7.824;2024-01-10T12:46:22;33.90;;;20.97;;
8213;SDS011;4148;47.974;7.824;2024-01-10T12:48:59;40.03;;;23.77;;
8213;SDS011;4148;47.974;7.824;2024-01-10T12:51:36;40.67;;;22.83;;
8213;SDS011;4148;47.974;7.824;2024-01-10T12:54:04;38.27;;;22.57;;
8213;SDS011;4148;47.974;7.824;2024-01-10T12:56:31;39.33;;;22.40;;
8213;SDS011;4148;47.974;7.824;2024-01-10T12:58:59;42.67;;;22.00;;
8213;SDS011;4148;47.974;7.824;2024-01-10T13:01:27;39.60;;;21.93;;
8213;SDS011;4148;47.974;7.824;2024-01-10T13:03:55;36.80;;;21.30;;
8213;SDS011;4148;47.974;7.824;2024-01-10T13:06:24;34.37;;;21.13;;
8213;SDS011;4148;47.974;7.824;2024-01-10T13:08:54;34.50;;;20.50;;
8213;SDS011;4148;47.974;7.824;2024-01-10T13:11:22;39.43;;;21.97;;
8213;SDS011;4148;47.974;7.824;2024-01-10T13:13:50;37.57;;;21.40;;
8213;SDS011;4148;47.974;7.824;2024-01-10T13:16:18;39.03;;;21.40;;
8213;SDS011;4148;47.974;7.824;2024-01-10T13:18:46;40.30;;;20.30;;
8213;SDS011;4148;47.974;7.824;2024-01-10T13:21:14;36.40;;;20.90;;
8213;SDS011;4148;47.974;7.824;2024-01-10T13:23:42;37.63;;;20.70;;
8213;SDS011;4148;47.974;7.824;2024-01-10T13:26:13;34.60;;;20.20;;
8213;SDS011;4148;47.974;7.824;2024-01-10T13:28:41;37.70;;;20.73;;
8213;SDS011;4148;47.974;7.824;2024-01-10T13:31:10;38.97;;;21.13;;
8213;SDS011;4148;47.974;7.824;2024-01-10T13:33:38;33.30;;;20.37;;
8213;SDS011;4148;47.974;7.824;2024-01-10T13:36:12;35.33;;;20.80;;
8213;SDS011;4148;47.974;7.824;2024-01-10T13:38:41;35.30;;;22.10;;
8213;SDS011;4148;47.974;7.824;2024-01-10T13:41:09;46.10;;;22.67;;
8213;SDS011;4148;47.974;7.824;2024-01-10T13:43:38;36.90;;;21.17;;
8213;SDS011;4148;47.974;7.824;2024-01-10T13:46:07;36.03;;;20.30;;
8213;SDS011;4148;47.974;7.824;2024-01-10T13:48:35;37.00;;;20.83;;
8213;SDS011;4148;47.974;7.824;2024-01-10T13:51:04;41.33;;;21.90;;
8213;SDS011;4148;47.974;7.824;2024-01-10T13:53:32;35.40;;;19.93;;
8213;SDS011;4148;47.974;7.824;2024-01-10T13:56:00;40.03;;;20.90;;
8213;SDS011;4148;47.974;7.824;2024-01-10T13:58:28;43.07;;;21.33;;
8213;SDS011;4148;47.974;7.824;2024-01-10T14:00:58;38.90;;;22.10;;
8213;SDS011;4148;47.974;7.824;2024-01-10T14:03:27;34.73;;;20.70;;
8213;SDS011;4148;47.974;7.824;2024-01-10T14:05:59;34.77;;;20.83;;
8213;SDS011;4148;47.974;7.824;2024-01-10T14:08:27;32.43;;;20.03;;
8213;SDS011;4148;47.974;7.824;2024-01-10T14:10:55;33.57;;;20.40;;
8213;SDS011;4148;47.974;7.824;2024-01-10T14:13:23;32.13;;;18.93;;
8213;SDS011;4148;47.974;7.824;2024-01-10T14:15:51;37.47;;;20.63;;
8213;SDS011;4148;47.974;7.824;2024-01-10T14:18:20;35.53;;;20.03;;
8213;SDS011;4148;47.974;7.824;2024-01-10T14:20:49;37.43;;;20.43;;
8213;SDS011;4148;47.974;7.824;2024-01-10T14:23:16;36.70;;;20.40;;
8213;SDS011;4148;47.974;7.824;2024-01-10T14:25:46;33.47;;;21.10;;
8213;SDS011;4148;47.974;7.824;2024-01-10T14:28:14;38.53;;;20.07;;
8213;SDS011;4148;47.974;7.824;2024-01-10T14:30:43;33.90;;;20.50;;
8213;SDS011;4148;47.974;7.824;2024-01-10T14:33:11;35.63;;;20.10;;
8213;SDS011;4148;47.974;7.824;2024-01-10T14:35:41;39.23;;;21.30;;
8213;SDS011;4148;47.974;7.824;2024-01-10T14:38:10;44.80;;;22.17;;
8213;SDS011;4148;47.974;7.824;2024-01-10T14:40:37;39.10;;;21.47;;
8213;SDS011;4148;47.974;7.824;2024-01-10T14:43:05;41.43;;;22.03;;
8213;SDS011;4148;47.974;7.824;2024-01-10T14:45:33;52.50;;;23.13;;
8213;SDS011;4148;47.974;7.824;2024-01-10T14:48:02;40.30;;;22.60;;
8213;SDS011;4148;47.974;7.824;2024-01-10T14:50:31;37.00;;;21.60;;
8213;SDS011;4148;47.974;7.824;2024-01-10T14:53:00;44.47;;;20.97;;
8213;SDS011;4148;47.974;7.824;2024-01-10T14:55:29;42.77;;;23.40;;
8213;SDS011;4148;47.974;7.824;2024-01-10T14:57:57;41.23;;;22.60;;
8213;SDS011;4148;47.974;7.824;2024-01-10T15:00:25;42.73;;;22.80;;